Time;durP1;ratioP1;P1;durP2;ratioP2;P2;SDS_P1;SDS_P2;PMS_P1;PMS_P2;Temp;Humidity;BMP_temperature;BMP_pressure;BME280_temperature;BME280_humidity;BME280_pressure;Samples;Min_cycle;Max_cycle;Signal;HPM_P1;HPM_P2
2022/04/21 00:00:46;;;;;;;14.65;11.50;;;27.90;92.90;;;;;;5106346;28;20034;-54
2022/04/21 00:03:13;;;;;;;15.07;10.90;;;27.80;93.00;;;;;;5106189;28;20031;-57
2022/04/21 00:05:40;;;;;;;13.65;10.55;;;27.80;93.10;;;;;;5106559;28;20035;-52
2022/04/21 00:08:07;;;;;;;16.10;10.55;;;27.90;93.20;;;;;;5105485;28;20312;-57
2022/04/21 00:10:34;;;;;;;63.85;15.07;;;27.90;92.90;;;;;;5106043;28;20024;-56
2022/04/21 00:13:00;;;;;;;61.75;14.95;;;27.90;92.90;;;;;;5106114;28;20020;-60
2022/04/21 00:15:27;;;;;;;21.15;11.98;;;27.90;92.80;;;;;;5106343;28;20040;-55
2022/04/21 00:17:54;;;;;;;18.83;10.75;;;27.90;92.80;;;;;;5105614;28;20051;-59
2022/04/21 00:20:21;;;;;;;15.57;10.82;;;27.90;92.70;;;;;;5105894;28;20020;-55
2022/04/21 00:25:32;;;;;;;13.55;10.73;;;27.90;92.40;;;;;;5105845;28;20343;-56
2022/04/21 00:27:59;;;;;;;18.73;10.85;;;27.90;92.40;;;;;;5111665;28;20023;-59
2022/04/21 00:30:26;;;;;;;16.23;10.35;;;27.90;92.50;;;;;;5110758;28;20035;-55
2022/04/21 00:32:53;;;;;;;14.00;10.13;;;27.90;92.60;;;;;;5105161;28;20104;-60
2022/04/21 00:35:20;;;;;;;13.20;10.02;;;27.90;92.40;;;;;;5105794;28;20051;-52
2022/04/21 00:37:51;;;;;;;14.95;10.98;;;27.80;92.50;;;;;;5105489;28;20312;-53
2022/04/21 00:40:22;;;;;;;15.33;10.00;;;27.80;92.40;;;;;;5105806;28;20019;-62
2022/04/21 00:42:49;;;;;;;13.52;10.43;;;27.80;92.30;;;;;;5105149;28;20303;-54
2022/04/21 00:45:16;;;;;;;15.63;11.05;;;27.80;92.30;;;;;;5105778;28;20024;-55
2022/04/21 00:47:45;;;;;;;13.73;10.90;;;27.80;92.40;;;;;;5104752;28;20032;-52
2022/04/21 00:50:34;;;;;;;17.85;11.70;;;27.80;92.20;;;;;;5105410;28;20032;-61
2022/04/21 00:53:03;;;;;;;15.75;11.23;;;27.80;92.30;;;;;;5105441;28;20020;-53
2022/04/21 00:55:31;;;;;;;16.55;11.50;;;27.80;92.40;;;;;;5105012;28;20198;-55
2022/04/21 00:58:01;;;;;;;13.68;10.95;;;27.80;92.40;;;;;;5113319;28;20020;-56
2022/04/21 01:00:28;;;;;;;13.88;10.68;;;27.80;92.10;;;;;;5112276;28;20024;-58
2022/04/21 01:02:56;;;;;;;15.13;10.82;;;27.80;92.20;;;;;;5104798;28;20028;-55
2022/04/21 01:05:31;;;;;;;14.85;10.52;;;27.70;92.50;;;;;;5104888;28;20344;-59
2022/04/21 01:08:08;;;;;;;15.05;10.90;;;27.70;92.60;;;;;;5104861;28;20024;-59
2022/04/21 01:10:37;;;;;;;13.32;9.82;;;27.70;92.80;;;;;;5104883;28;20032;-56
2022/04/21 01:13:06;;;;;;;12.57;10.43;;;27.60;92.70;;;;;;5104656;28;20012;-57
2022/04/21 01:15:34;;;;;;;18.73;11.05;;;27.60;92.80;;;;;;5104660;28;20032;-60
2022/04/21 01:18:01;;;;;;;18.95;10.60;;;27.60;92.80;;;;;;5104525;28;20027;-57
2022/04/21 01:20:27;;;;;;;15.25;10.13;;;27.60;92.90;;;;;;5104563;28;20189;-54
2022/04/21 01:22:55;;;;;;;14.57;9.65;;;27.60;92.80;;;;;;5105067;28;20309;-56
2022/04/21 01:25:22;;;;;;;14.68;10.73;;;27.60;92.80;;;;;;5115747;28;20032;-56
2022/04/21 01:27:52;;;;;;;15.63;10.65;;;27.60;92.70;;;;;;5104518;28;20023;-55
2022/04/21 01:30:20;;;;;;;18.45;11.20;;;27.60;92.60;;;;;;5105058;28;20044;-56
2022/04/21 01:32:49;;;;;;;12.73;10.38;;;27.60;92.50;;;;;;5115136;28;20034;-58
2022/04/21 01:35:16;;;;;;;13.50;10.02;;;27.60;92.60;;;;;;5122040;28;20216;-57
2022/04/21 01:43:14;;;;;;;15.13;9.77;;;27.70;92.40;;;;;;5121639;28;20015;-57
2022/04/21 01:45:43;;;;;;;12.25;10.05;;;27.60;92.50;;;;;;5097382;28;20338;-52
2022/04/21 01:48:09;;;;;;;14.43;10.18;;;27.60;92.50;;;;;;5104334;28;20220;-54
2022/04/21 01:50:36;;;;;;;12.32;9.40;;;27.70;92.50;;;;;;5104192;28;20020;-55
2022/04/21 01:53:03;;;;;;;13.07;8.95;;;27.70;92.60;;;;;;5103950;28;20051;-59
2022/04/21 01:55:29;;;;;;;13.25;9.93;;;27.60;92.70;;;;;;5103972;28;20260;-53
2022/04/21 01:57:56;;;;;;;12.40;9.43;;;27.70;92.60;;;;;;5103493;28;20211;-53
2022/04/21 02:00:23;;;;;;;15.70;9.95;;;27.70;92.50;;;;;;5104364;28;20078;-54
2022/04/21 02:02:50;;;;;;;14.23;9.98;;;27.70;92.60;;;;;;5103594;28;20078;-56
2022/04/21 02:05:17;;;;;;;18.83;10.57;;;27.70;92.70;;;;;;5104500;28;20020;-58
2022/04/21 02:07:44;;;;;;;18.38;10.27;;;27.70;92.80;;;;;;5104288;28;20035;-56
2022/04/21 02:10:16;;;;;;;15.00;10.45;;;27.70;92.70;;;;;;5097664;28;20094;-53
2022/04/21 02:12:43;;;;;;;11.55;9.80;;;27.70;92.80;;;;;;5090738;28;20104;-51
2022/04/21 02:15:10;;;;;;;14.68;9.85;;;27.70;92.60;;;;;;5084058;28;20033;-55
2022/04/21 02:17:38;;;;;;;15.90;10.07;;;27.70;92.60;;;;;;5083391;28;20017;-55
2022/04/21 02:20:10;;;;;;;17.15;9.73;;;27.70;92.50;;;;;;5083951;28;20327;-56
2022/04/21 02:22:37;;;;;;;16.73;9.63;;;27.70;92.40;;;;;;5083572;28;20028;-54
2022/04/21 02:25:06;;;;;;;12.35;9.60;;;27.70;92.40;;;;;;5084054;28;20124;-59
2022/04/21 02:27:35;;;;;;;12.25;8.68;;;27.70;92.40;;;;;;5082266;28;20093;-51
2022/04/21 02:30:02;;;;;;;14.30;9.25;;;27.60;92.30;;;;;;5104124;28;20077;-55
2022/04/21 02:32:29;;;;;;;14.13;9.48;;;27.70;92.40;;;;;;5110739;28;20041;-55
2022/04/21 02:34:56;;;;;;;12.85;8.88;;;27.70;92.50;;;;;;5124675;28;20204;-53
2022/04/21 02:37:23;;;;;;;13.63;9.35;;;27.70;92.50;;;;;;5124076;28;20032;-54
2022/04/21 02:39:50;;;;;;;13.45;9.40;;;27.70;92.40;;;;;;5109776;28;20028;-57
2022/04/21 02:42:19;;;;;;;14.85;8.95;;;27.70;92.40;;;;;;5098830;28;20036;-52
2022/04/21 02:44:47;;;;;;;16.40;9.25;;;27.60;92.50;;;;;;5103313;28;20288;-55
2022/04/21 02:47:14;;;;;;;14.02;8.98;;;27.60;92.50;;;;;;5103501;28;20059;-55
2022/04/21 02:49:46;;;;;;;13.23;9.57;;;27.60;92.60;;;;;;5103952;28;20024;-54
2022/04/21 02:52:14;;;;;;;14.73;9.15;;;27.60;92.70;;;;;;5103699;28;20031;-54
2022/04/21 02:57:27;;;;;;;12.07;9.50;;;27.60;92.70;;;;;;5103595;28;20216;-56
2022/04/21 02:59:56;;;;;;;12.90;8.52;;;27.60;92.70;;;;;;5103538;28;20066;-57
2022/04/21 03:02:23;;;;;;;11.88;8.50;;;27.60;92.90;;;;;;5103510;28;20091;-56
2022/04/21 03:04:52;;;;;;;11.77;8.68;;;27.60;92.70;;;;;;5103758;28;20169;-55
2022/04/21 03:07:23;;;;;;;11.13;8.23;;;27.60;92.70;;;;;;5103641;28;20058;-55
2022/04/21 03:09:53;;;;;;;10.93;8.52;;;27.60;92.60;;;;;;5105106;28;20020;-55
2022/04/21 03:12:23;;;;;;;9.68;8.32;;;27.60;92.60;;;;;;5108982;28;20265;-56
2022/04/21 03:14:49;;;;;;;15.63;9.32;;;27.60;92.60;;;;;;5127145;28;20267;-57
2022/04/21 03:17:16;;;;;;;13.80;8.30;;;27.60;92.60;;;;;;5127615;28;20185;-58
2022/04/21 03:19:43;;;;;;;14.55;8.20;;;27.60;92.50;;;;;;5110367;28;20047;-54
2022/04/21 03:24:59;;;;;;;12.00;8.32;;;27.60;92.20;;;;;;5122418;28;20112;-57
2022/04/21 03:27:29;;;;;;;12.63;7.78;;;27.60;92.00;;;;;;5095791;28;20027;-56
2022/04/21 03:30:05;;;;;;;11.70;8.13;;;27.60;92.20;;;;;;5086385;28;20020;-57
2022/04/21 03:32:32;;;;;;;11.95;8.32;;;27.50;92.10;;;;;;5086425;28;20028;-54
2022/04/21 03:35:00;;;;;;;11.63;7.80;;;27.50;91.90;;;;;;5093842;28;20051;-58
2022/04/21 03:37:27;;;;;;;9.98;7.78;;;27.50;92.00;;;;;;5127094;28;20087;-59
2022/04/21 03:39:53;;;;;;;11.13;8.07;;;27.60;91.90;;;;;;5098568;28;20312;-53
2022/04/21 03:42:25;;;;;;;15.00;8.18;;;27.50;91.90;;;;;;5124783;28;20065;-56
2022/04/21 03:44:55;;;;;;;12.07;7.33;;;27.60;92.10;;;;;;5113356;28;20021;-55
2022/04/21 03:47:23;;;;;;;9.00;6.60;;;27.50;92.20;;;;;;5094206;28;20080;-53
2022/04/21 03:49:50;;;;;;;9.30;7.10;;;27.60;91.80;;;;;;5106602;28;20212;-55
2022/04/21 03:52:19;;;;;;;10.30;6.93;;;27.50;91.70;;;;;;5106527;28;20087;-58
2022/04/21 03:54:47;;;;;;;9.98;6.57;;;27.50;92.00;;;;;;5117971;28;20047;-54
2022/04/21 03:57:13;;;;;;;9.75;6.40;;;27.50;91.90;;;;;;5124993;28;20046;-57
2022/04/21 03:59:40;;;;;;;8.50;6.00;;;27.50;91.70;;;;;;5127261;28;20034;-58
2022/04/21 04:02:06;;;;;;;10.32;6.47;;;27.50;91.70;;;;;;5126889;28;20275;-57
2022/04/21 04:04:38;;;;;;;10.55;5.88;;;27.50;91.80;;;;;;5126958;28;20019;-57
2022/04/21 04:12:40;;;;;;;9.43;6.07;;;27.50;91.60;;;;;;5126647;28;20038;-55
2022/04/21 04:15:07;;;;;;;10.10;5.45;;;27.50;91.90;;;;;;5127250;28;20039;-54
2022/04/21 04:17:34;;;;;;;8.05;5.15;;;27.40;91.70;;;;;;5126500;28;20177;-56
2022/04/21 04:20:01;;;;;;;6.88;4.95;;;27.40;91.60;;;;;;5126343;28;20019;-57
2022/04/21 04:22:27;;;;;;;8.20;5.30;;;27.50;91.70;;;;;;5125870;28;20031;-54
2022/04/21 04:24:56;;;;;;;8.77;5.28;;;27.50;92.00;;;;;;5126584;28;20043;-54
2022/04/21 04:27:23;;;;;;;9.52;5.15;;;27.50;91.80;;;;;;5126245;28;20078;-56
2022/04/21 04:29:50;;;;;;;10.95;5.75;;;27.50;91.70;;;;;;5126555;28;20027;-55
2022/04/21 04:32:16;;;;;;;9.18;5.45;;;27.50;91.90;;;;;;5124201;28;20027;-55
2022/04/21 04:34:44;;;;;;;9.43;5.43;;;27.50;92.00;;;;;;5126327;28;20265;-59
2022/04/21 04:37:11;;;;;;;7.90;5.30;;;27.40;91.80;;;;;;5125962;28;20081;-58
2022/04/21 04:39:37;;;;;;;8.93;5.80;;;27.40;91.90;;;;;;5124284;28;20012;-54
2022/04/21 04:42:16;;;;;;;9.85;5.90;;;27.40;91.90;;;;;;5126091;28;20374;-58
2022/04/21 04:44:47;;;;;;;8.50;5.47;;;27.40;91.90;;;;;;5126198;28;20035;-54
2022/04/21 04:47:14;;;;;;;13.82;7.03;;;27.40;92.00;;;;;;5125957;28;20346;-54
2022/04/21 04:49:41;;;;;;;13.10;7.05;;;27.40;91.90;;;;;;5126206;28;20031;-58
2022/04/21 04:52:07;;;;;;;12.10;6.03;;;27.40;92.00;;;;;;5125705;28;20018;-55
2022/04/21 04:54:34;;;;;;;9.77;6.35;;;27.40;92.00;;;;;;5125695;28;20047;-51
2022/04/21 04:57:01;;;;;;;11.15;6.30;;;27.40;92.10;;;;;;5125632;28;20039;-57
2022/04/21 04:59:28;;;;;;;8.45;5.93;;;27.40;92.10;;;;;;5125732;28;20047;-59
2022/04/21 05:01:55;;;;;;;10.02;6.03;;;27.40;92.00;;;;;;5125632;28;20023;-58
2022/04/21 05:04:21;;;;;;;8.57;6.15;;;27.40;92.10;;;;;;5125856;28;20028;-56
2022/04/21 05:06:50;;;;;;;11.63;6.00;;;27.40;92.20;;;;;;5125302;28;20023;-59
2022/04/21 05:09:21;;;;;;;8.65;5.82;;;27.40;92.30;;;;;;5125873;28;20023;-58
2022/04/21 05:11:53;;;;;;;14.68;6.32;;;27.40;92.40;;;;;;5125380;28;20106;-55
2022/04/21 05:14:21;;;;;;;11.55;6.07;;;27.40;92.10;;;;;;5125215;28;20028;-54
2022/04/21 05:16:49;;;;;;;12.00;5.82;;;27.40;92.20;;;;;;5125174;28;20028;-54
2022/04/21 05:19:17;;;;;;;10.70;5.93;;;27.40;92.20;;;;;;5125214;28;20095;-55
2022/04/21 05:21:46;;;;;;;11.80;6.70;;;27.30;92.20;;;;;;5125067;28;20023;-52
2022/04/21 05:24:14;;;;;;;12.98;6.50;;;27.30;92.20;;;;;;5125474;28;20255;-57
2022/04/21 05:26:42;;;;;;;6.90;6.20;;;27.30;92.30;;;;;;5125131;28;20330;-56
2022/04/21 05:31:58;;;;;;;10.05;6.90;;;27.30;92.30;;;;;;5125233;28;20035;-55
2022/04/21 05:34:26;;;;;;;13.50;6.47;;;27.30;92.20;;;;;;5123923;28;20077;-56
2022/04/21 05:36:53;;;;;;;8.15;6.07;;;27.30;92.30;;;;;;5124974;28;20039;-56
2022/04/21 05:39:21;;;;;;;11.63;6.70;;;27.30;92.30;;;;;;5124966;28;20020;-57
2022/04/21 05:41:48;;;;;;;11.13;6.93;;;27.30;92.30;;;;;;5125059;28;20027;-54
2022/04/21 05:44:15;;;;;;;10.18;6.50;;;27.30;92.30;;;;;;5125113;28;20024;-56
2022/04/21 05:46:42;;;;;;;9.38;6.25;;;27.30;92.30;;;;;;5124601;28;20026;-56
2022/04/21 05:49:09;;;;;;;11.68;6.60;;;27.30;92.30;;;;;;5124976;28;20035;-56
2022/04/21 05:51:35;;;;;;;12.02;6.95;;;27.30;92.30;;;;;;5124831;28;20038;-55
2022/04/21 05:54:06;;;;;;;11.82;6.68;;;27.30;92.30;;;;;;5124609;28;20304;-58
2022/04/21 05:56:35;;;;;;;9.88;5.97;;;27.30;92.20;;;;;;5124657;28;20302;-58
2022/04/21 05:59:03;;;;;;;12.38;7.22;;;27.30;92.30;;;;;;5124759;28;20358;-59
2022/04/21 06:01:31;;;;;;;12.35;6.47;;;27.30;92.30;;;;;;5124427;28;20022;-56
2022/04/21 06:03:57;;;;;;;11.13;6.85;;;27.30;92.40;;;;;;5124534;28;20024;-57
2022/04/21 06:06:24;;;;;;;14.77;6.65;;;27.30;92.20;;;;;;5124430;28;20069;-56
2022/04/21 06:08:51;;;;;;;18.23;7.32;;;27.20;92.20;;;;;;5124570;28;20032;-54
2022/04/21 06:11:17;;;;;;;12.10;7.03;;;27.20;92.30;;;;;;5124750;28;20028;-63
2022/04/21 06:13:44;;;;;;;11.77;6.70;;;27.30;92.20;;;;;;5124750;28;20062;-56
2022/04/21 06:16:11;;;;;;;11.20;6.50;;;27.30;92.20;;;;;;5124231;28;20028;-58
2022/04/21 06:18:37;;;;;;;12.02;6.60;;;27.20;92.40;;;;;;5124849;28;20027;-56
2022/04/21 06:21:09;;;;;;;11.25;6.72;;;27.30;92.20;;;;;;5124410;28;20027;-56
2022/04/21 06:23:35;;;;;;;14.13;7.27;;;27.30;92.10;;;;;;5124519;28;20035;-56
2022/04/21 06:26:03;;;;;;;12.00;7.03;;;27.20;92.20;;;;;;5124520;28;20019;-54
2022/04/21 06:28:30;;;;;;;12.52;6.57;;;27.20;92.10;;;;;;5124466;28;20065;-59
2022/04/21 06:30:57;;;;;;;12.77;6.55;;;27.20;91.90;;;;;;5124108;28;20016;-55
2022/04/21 06:33:23;;;;;;;11.73;6.60;;;27.20;91.80;;;;;;5124282;28;20032;-56
2022/04/21 06:35:50;;;;;;;12.18;6.50;;;27.20;91.60;;;;;;5124300;28;20035;-55
2022/04/21 06:38:17;;;;;;;8.73;6.72;;;27.20;91.40;;;;;;5123960;28;20015;-53
2022/04/21 06:40:43;;;;;;;10.98;6.85;;;27.20;91.10;;;;;;5124296;28;20032;-55
2022/04/21 06:48:42;;;;;;;11.52;6.38;;;27.10;90.80;;;;;;5128264;28;20137;-55
2022/04/21 06:51:09;;;;;;;14.02;6.70;;;27.10;90.50;;;;;;5128085;28;20020;-59
2022/04/21 06:53:35;;;;;;;10.60;6.07;;;27.10;90.40;;;;;;5128292;28;20327;-59
2022/04/21 06:56:04;;;;;;;10.80;6.60;;;27.10;90.30;;;;;;5127936;28;20044;-55
2022/04/21 06:58:31;;;;;;;13.60;6.72;;;27.10;90.30;;;;;;5127887;28;20334;-54
2022/04/21 07:00:57;;;;;;;10.02;6.35;;;27.10;90.40;;;;;;5128093;28;20027;-55
2022/04/21 07:03:24;;;;;;;10.25;6.95;;;27.10;90.30;;;;;;5128074;28;20020;-58
2022/04/21 07:05:55;;;;;;;8.98;6.32;;;27.10;90.30;;;;;;5127794;28;20026;-57
2022/04/21 07:08:22;;;;;;;10.98;6.30;;;27.10;90.10;;;;;;5127838;28;20035;-55
2022/04/21 07:10:49;;;;;;;11.18;7.07;;;27.20;90.10;;;;;;5127822;28;20015;-56
2022/04/21 07:13:15;;;;;;;10.13;5.88;;;27.10;89.90;;;;;;5127846;28;20016;-58
2022/04/21 07:15:42;;;;;;;10.35;5.88;;;27.10;90.00;;;;;;5127634;28;20335;-56
2022/04/21 07:18:09;;;;;;;11.23;6.10;;;27.20;90.00;;;;;;5127705;28;20023;-58
2022/04/21 07:20:36;;;;;;;12.40;6.28;;;27.10;89.70;;;;;;5127542;28;20012;-54
2022/04/21 07:23:03;;;;;;;11.00;6.80;;;27.20;90.00;;;;;;5127868;28;20028;-55
2022/04/21 07:25:30;;;;;;;14.32;6.75;;;27.20;90.10;;;;;;5127666;28;20028;-54
2022/04/21 07:27:56;;;;;;;12.52;6.22;;;27.20;90.10;;;;;;5127477;28;20060;-56
2022/04/21 07:30:23;;;;;;;10.55;6.85;;;27.20;90.10;;;;;;5128077;28;20043;-54
2022/04/21 07:32:50;;;;;;;8.25;6.13;;;27.20;90.10;;;;;;5127443;28;20322;-55
2022/04/21 07:35:18;;;;;;;10.25;7.38;;;27.10;90.10;;;;;;5123521;28;20042;-56
2022/04/21 07:37:45;;;;;;;10.15;6.50;;;27.20;90.10;;;;;;5127228;28;20070;-56
2022/04/21 07:40:11;;;;;;;9.55;6.63;;;27.20;90.20;;;;;;5127764;28;20323;-54
2022/04/21 07:42:38;;;;;;;15.60;7.32;;;27.20;90.10;;;;;;5127346;28;20323;-59
2022/04/21 07:45:05;;;;;;;16.98;7.63;;;27.20;90.20;;;;;;5127701;28;20035;-55
2022/04/21 07:47:32;;;;;;;12.15;7.78;;;27.20;90.30;;;;;;5127391;28;20200;-58
2022/04/21 07:49:59;;;;;;;14.15;7.95;;;27.20;90.30;;;;;;5127645;28;20027;-56
2022/04/21 07:55:23;;;;;;;15.65;8.55;;;27.10;90.90;;;;;;5126840;28;20084;-59
2022/04/21 07:57:51;;;;;;;15.50;8.77;;;27.10;90.90;;;;;;5126420;28;20024;-57
2022/04/21 08:00:18;;;;;;;14.30;8.43;;;27.10;90.90;;;;;;5127472;28;20206;-58
2022/04/21 08:02:47;;;;;;;11.68;8.30;;;27.10;90.90;;;;;;5127040;28;20024;-57
2022/04/21 08:05:15;;;;;;;13.68;8.15;;;27.10;90.90;;;;;;5127312;28;20031;-61
2022/04/21 08:07:42;;;;;;;17.05;8.63;;;27.10;91.00;;;;;;5126607;28;20079;-56
2022/04/21 08:10:10;;;;;;;14.50;8.57;;;27.10;91.10;;;;;;5127147;28;20028;-57
2022/04/21 08:12:48;;;;;;;13.48;8.68;;;27.10;91.10;;;;;;5127055;28;20073;-58
2022/04/21 08:15:35;;;;;;;11.57;8.52;;;27.10;91.00;;;;;;5126722;28;20035;-58
2022/04/21 08:18:09;;;;;;;14.38;8.25;;;27.10;91.00;;;;;;5126664;28;20020;-56
2022/04/21 08:20:36;;;;;;;13.32;7.82;;;27.10;91.00;;;;;;5126275;28;20312;-55
2022/04/21 08:23:06;;;;;;;13.18;8.25;;;27.10;91.20;;;;;;5126352;28;20020;-56
2022/04/21 08:33:46;;;;;;;13.75;8.60;;;27.10;91.20;;;;;;5126208;28;20035;-58
2022/04/21 08:36:13;;;;;;;18.85;8.68;;;27.10;91.20;;;;;;5126072;28;20031;-56
2022/04/21 08:38:40;;;;;;;13.20;8.30;;;27.10;91.20;;;;;;5126391;28;20035;-54
2022/04/21 08:41:09;;;;;;;14.95;8.30;;;27.10;91.20;;;;;;5126168;28;20207;-54
2022/04/21 08:43:36;;;;;;;18.40;7.95;;;27.10;91.10;;;;;;5125964;28;20039;-54
2022/04/21 08:46:04;;;;;;;12.20;8.00;;;27.00;91.20;;;;;;5126075;28;20099;-60
2022/04/21 08:48:33;;;;;;;13.88;7.68;;;27.10;91.30;;;;;;5125788;28;20031;-55
2022/04/21 08:51:02;;;;;;;12.15;7.68;;;27.00;91.20;;;;;;5125757;28;20339;-59
2022/04/21 08:53:29;;;;;;;10.38;7.97;;;27.00;91.30;;;;;;5124840;28;20334;-54
2022/04/21 08:55:57;;;;;;;16.77;8.85;;;27.00;91.50;;;;;;5125640;28;20332;-56
2022/04/21 08:58:24;;;;;;;15.48;8.35;;;26.90;91.10;;;;;;5125552;28;20024;-57
2022/04/21 09:00:53;;;;;;;15.57;7.97;;;26.90;91.20;;;;;;5125782;28;20064;-61
2022/04/21 09:03:22;;;;;;;11.85;7.95;;;26.90;91.30;;;;;;5125495;28;20121;-58
2022/04/21 09:05:48;;;;;;;13.07;8.30;;;26.90;91.30;;;;;;5125296;28;20320;-57
2022/04/21 09:08:23;;;;;;;15.65;8.63;;;26.90;91.30;;;;;;5125600;28;20027;-55
2022/04/21 09:11:11;;;;;;;12.80;8.07;;;26.90;91.30;;;;;;5125508;28;20026;-54
2022/04/21 09:13:42;;;;;;;13.10;8.07;;;26.90;91.40;;;;;;5125404;28;20032;-57
2022/04/21 09:16:11;;;;;;;11.77;7.50;;;27.00;91.50;;;;;;5125028;28;20090;-58
2022/04/21 09:18:47;;;;;;;12.70;7.85;;;27.00;91.60;;;;;;5125405;28;20285;-54
2022/04/21 09:21:17;;;;;;;13.48;8.40;;;27.00;91.50;;;;;;5125498;28;20031;-57
2022/04/21 09:23:48;;;;;;;13.50;8.68;;;26.90;91.70;;;;;;5125090;28;20240;-56
2022/04/21 09:26:21;;;;;;;20.52;9.05;;;26.90;91.70;;;;;;5125165;28;20232;-54
2022/04/21 09:28:56;;;;;;;;;;;26.90;91.80;;;;;;5125555;28;20094;-54
2022/04/21 09:31:27;;;;;;;12.60;8.10;;;26.90;91.90;;;;;;5125000;28;20184;-54
2022/04/21 09:33:55;;;;;;;14.63;7.97;;;26.90;91.90;;;;;;5125132;28;20062;-56
2022/04/21 09:36:22;;;;;;;13.40;8.60;;;26.90;92.00;;;;;;5124756;28;20061;-55
2022/04/21 09:38:59;;;;;;;12.63;8.07;;;26.90;92.00;;;;;;5125144;28;20057;-54
2022/04/21 09:41:29;;;;;;;11.00;8.40;;;26.90;92.10;;;;;;5124991;28;20031;-54
2022/04/21 09:46:07;;;;;;;15.85;8.70;;;26.90;92.10;;;;;;5125467;28;20028;-55
2022/04/21 09:46:56;;;;;;;17.02;8.38;;;26.90;92.30;;;;;;5124886;28;20037;-54
2022/04/21 09:49:41;;;;;;;12.65;8.23;;;26.90;92.30;;;;;;5125000;28;20234;-56
2022/04/21 09:52:08;;;;;;;12.45;8.43;;;26.90;92.30;;;;;;5124636;28;20098;-54
2022/04/21 09:54:35;;;;;;;11.35;8.70;;;26.80;92.40;;;;;;5124543;28;20050;-57
2022/04/21 09:57:02;;;;;;;13.93;8.68;;;26.80;92.40;;;;;;5124644;28;20201;-58
2022/04/21 09:59:34;;;;;;;12.60;8.30;;;26.80;92.40;;;;;;5124735;28;20095;-55
2022/04/21 10:02:03;;;;;;;20.30;8.73;;;26.80;92.40;;;;;;5124529;28;20208;-55
2022/04/21 10:04:30;;;;;;;13.23;8.25;;;26.80;92.40;;;;;;5124324;28;20035;-55
2022/04/21 10:06:58;;;;;;;10.82;7.85;;;26.80;92.40;;;;;;5124468;28;20019;-54
2022/04/21 10:09:25;;;;;;;14.93;8.15;;;26.90;92.40;;;;;;5124879;28;20027;-54
2022/04/21 10:11:53;;;;;;;14.48;7.90;;;26.80;92.40;;;;;;5124719;28;20040;-56
2022/04/21 10:14:20;;;;;;;9.15;6.65;;;26.70;92.40;;;;;;5124453;28;20099;-54
2022/04/21 10:16:48;;;;;;;12.85;7.35;;;26.80;92.40;;;;;;5124568;28;20031;-55
2022/04/21 10:19:19;;;;;;;13.93;7.22;;;26.80;92.70;;;;;;5123881;28;20032;-53
2022/04/21 10:22:00;;;;;;;10.57;6.88;;;26.70;92.40;;;;;;5124277;28;20036;-54
2022/04/21 10:24:29;;;;;;;11.70;7.38;;;26.70;92.30;;;;;;5124603;28;20212;-53
2022/04/21 10:26:56;;;;;;;17.15;7.28;;;26.70;92.20;;;;;;5124338;28;20320;-56
2022/04/21 10:29:27;;;;;;;11.30;6.75;;;26.80;92.20;;;;;;5124494;28;20042;-54
2022/04/21 10:32:03;;;;;;;12.10;6.90;;;26.70;92.20;;;;;;5124279;28;20030;-56
2022/04/21 10:34:40;;;;;;;14.32;6.72;;;26.70;92.20;;;;;;5106246;28;20027;-55
2022/04/21 10:37:32;;;;;;;15.88;7.07;;;26.70;92.10;;;;;;5124222;28;20338;-57
2022/04/21 10:40:07;;;;;;;14.52;6.05;;;26.70;92.00;;;;;;5124659;28;20079;-55
2022/04/21 10:42:52;;;;;;;13.30;6.25;;;26.70;92.10;;;;;;5123932;28;20256;-56
2022/04/21 10:45:32;;;;;;;11.77;6.07;;;26.70;92.20;;;;;;5124583;28;20087;-54
2022/04/21 10:48:12;;;;;;;10.68;6.88;;;26.70;92.30;;;;;;5124045;28;20232;-60
2022/04/21 10:50:41;;;;;;;10.52;6.28;;;26.70;92.30;;;;;;5124203;28;20312;-54
2022/04/21 10:58:50;;;;;;;17.08;7.47;;;26.80;92.30;;;;;;5124248;28;20039;-58
2022/04/21 11:01:22;;;;;;;13.55;9.18;;;26.70;92.30;;;;;;5123879;28;20039;-55
2022/04/21 11:04:12;;;;;;;19.05;11.98;;;26.70;92.40;;;;;;5123881;28;20426;-55
2022/04/21 11:06:44;;;;;;;17.15;8.52;;;26.70;92.50;;;;;;5124113;28;20108;-57
2022/04/21 11:09:30;;;;;;;;;;;26.70;92.70;;;;;;5124900;28;20058;-60
2022/04/21 11:11:57;;;;;;;18.38;8.38;;;26.70;92.50;;;;;;5106656;28;19974;-54
2022/04/21 11:14:32;;;;;;;19.45;12.45;;;26.70;92.60;;;;;;5124139;28;20320;-53
2022/04/21 11:17:06;;;;;;;10.77;7.80;;;26.70;92.70;;;;;;5123780;28;20024;-54
2022/04/21 11:19:33;;;;;;;16.60;8.43;;;26.70;92.80;;;;;;5123972;28;20095;-56
2022/04/21 11:22:08;;;;;;;21.98;8.40;;;26.70;92.90;;;;;;5124092;28;20177;-54
2022/04/21 11:24:59;;;;;;;23.17;9.38;;;26.70;92.90;;;;;;5124121;28;20040;-53
2022/04/21 11:27:26;;;;;;;17.42;8.27;;;26.70;92.90;;;;;;5121902;28;20023;-46
2022/04/21 11:30:13;;;;;;;17.67;7.75;;;26.70;93.00;;;;;;5124006;28;20047;-47
2022/04/21 11:32:48;;;;;;;16.17;7.35;;;26.70;93.00;;;;;;5125998;28;20027;-49
2022/04/21 11:35:16;;;;;;;15.88;7.00;;;26.70;93.00;;;;;;5127618;28;20055;-50
2022/04/21 11:37:51;;;;;;;17.90;6.90;;;26.70;92.90;;;;;;5127652;28;20209;-51
2022/04/21 11:40:19;;;;;;;19.50;7.40;;;26.70;92.90;;;;;;5126543;28;20251;-46
2022/04/21 11:42:47;;;;;;;20.13;7.40;;;26.70;93.00;;;;;;5125304;28;20083;-49
2022/04/21 11:45:22;;;;;;;14.00;6.78;;;26.70;93.00;;;;;;5125838;28;20028;-47
2022/04/21 11:47:49;;;;;;;20.85;7.40;;;26.70;93.10;;;;;;5125251;28;20138;-49
2022/04/21 11:50:22;;;;;;;19.70;7.47;;;26.70;93.10;;;;;;5125282;28;20220;-50
2022/04/21 11:52:52;;;;;;;50.75;9.88;;;26.70;93.00;;;;;;5125773;28;20070;-50
2022/04/21 11:55:28;;;;;;;30.25;8.00;;;26.80;93.00;;;;;;5126290;28;20351;-49
2022/04/21 11:57:56;;;;;;;73.97;13.02;;;26.80;92.50;;;;;;5126934;28;20054;-51
2022/04/21 12:08:46;;;;;;;21.42;7.95;;;26.80;92.60;;;;;;5126942;28;20026;-50
2022/04/21 12:11:18;;;;;;;25.63;8.35;;;26.80;92.60;;;;;;5127011;28;20042;-52
2022/04/21 12:13:47;;;;;;;32.85;9.70;;;26.80;92.60;;;;;;5125248;28;20023;-50
2022/04/21 12:16:43;;;;;;;26.52;8.15;;;26.80;92.60;;;;;;5125941;28;20328;-48
2022/04/21 12:19:14;;;;;;;23.98;7.78;;;26.80;92.60;;;;;;5126699;28;20034;-49
2022/04/21 12:21:41;;;;;;;21.92;9.38;;;26.80;92.30;;;;;;5126373;28;20027;-49
2022/04/21 12:24:12;;;;;;;17.10;7.82;;;26.90;92.30;;;;;;5126618;28;20031;-52
2022/04/21 12:26:46;;;;;;;16.38;7.22;;;26.90;92.50;;;;;;5126416;28;20031;-47
2022/04/21 12:29:12;;;;;;;14.80;8.05;;;26.80;92.40;;;;;;5126500;28;20042;-53
2022/04/21 12:31:52;;;;;;;14.02;7.18;;;26.90;92.60;;;;;;5126487;28;20129;-49
2022/04/21 12:34:29;;;;;;;17.00;7.60;;;26.90;92.60;;;;;;5126049;28;20258;-53
2022/04/21 12:36:58;;;;;;;43.10;9.73;;;26.90;92.90;;;;;;5126522;28;20297;-50
2022/04/21 12:39:27;;;;;;;28.80;8.63;;;26.90;93.10;;;;;;5126376;28;20039;-48
2022/04/21 12:41:54;;;;;;;23.25;8.63;;;26.90;93.00;;;;;;5125881;28;20358;-48
2022/04/21 12:44:25;;;;;;;23.63;8.35;;;26.90;93.00;;;;;;5126197;28;20023;-56
2022/04/21 12:47:12;;;;;;;26.08;8.45;;;26.90;93.10;;;;;;5126089;28;20091;-50
2022/04/21 12:49:58;;;;;;;14.57;7.43;;;26.90;93.20;;;;;;5126788;28;20208;-55
2022/04/21 12:52:33;;;;;;;19.00;8.48;;;26.90;93.20;;;;;;5125782;28;20324;-46
2022/04/21 12:55:01;;;;;;;13.43;7.43;;;26.90;93.30;;;;;;5126119;28;20061;-50
2022/04/21 12:57:27;;;;;;;14.95;7.90;;;26.90;93.50;;;;;;5125903;28;20035;-51
2022/04/21 12:59:55;;;;;;;17.63;7.63;;;26.90;93.60;;;;;;5125911;28;20188;-55
2022/04/21 13:02:22;;;;;;;25.88;8.07;;;26.80;93.80;;;;;;5117970;28;20027;-47
2022/04/21 13:04:49;;;;;;;16.98;7.53;;;26.80;94.10;;;;;;5125964;28;20062;-52
2022/04/21 13:07:16;;;;;;;18.50;6.82;;;26.80;94.00;;;;;;5122494;28;20028;-55
2022/04/21 13:09:43;;;;;;;20.05;7.30;;;26.80;93.90;;;;;;5125904;28;20027;-47
2022/04/21 13:12:10;;;;;;;18.25;6.95;;;26.80;94.30;;;;;;5125758;28;20039;-49
2022/04/21 13:14:36;;;;;;;18.13;7.30;;;26.80;94.20;;;;;;5125792;28;20035;-53
2022/04/21 13:17:05;;;;;;;17.30;7.07;;;26.80;94.30;;;;;;5125745;28;20114;-46
2022/04/21 13:19:33;;;;;;;16.85;6.70;;;26.80;94.40;;;;;;5121994;28;20090;-50
2022/04/21 13:22:01;;;;;;;15.45;6.90;;;26.90;94.30;;;;;;5125252;28;20324;-47
2022/04/21 13:24:29;;;;;;;14.73;6.68;;;26.90;94.50;;;;;;5125663;28;20027;-51
2022/04/21 13:26:58;;;;;;;12.27;6.05;;;26.80;94.80;;;;;;5117834;28;20036;-46
2022/04/21 13:29:27;;;;;;;14.90;7.40;;;26.70;94.90;;;;;;5125501;28;20031;-48
2022/04/21 13:34:40;;;;;;;11.50;7.05;;;26.80;94.90;;;;;;5125535;28;20070;-51
2022/04/21 13:37:08;;;;;;;14.57;7.82;;;26.80;94.80;;;;;;5125039;28;20316;-53
2022/04/21 13:39:36;;;;;;;15.05;7.80;;;26.80;94.80;;;;;;5125177;28;20153;-54
2022/04/21 13:42:03;;;;;;;16.05;7.13;;;26.80;94.80;;;;;;5125210;28;20046;-48
2022/04/21 13:44:30;;;;;;;12.93;7.65;;;26.80;94.90;;;;;;5125242;28;20137;-50